Time;durP1;ratioP1;P1;durP2;ratioP2;P2;SDS_P1;SDS_P2;PMS_P1;PMS_P2;Temp;Humidity;BMP_temperature;BMP_pressure;BME280_temperature;BME280_humidity;BME280_pressure;Samples;Min_cycle;Max_cycle;Signal;HPM_P1;HPM_P2
2023/08/10 00:01:34;;;;;;;3.88;1.23;;;18.60;99.90;;;;;;5057743;28;20204;-80
2023/08/10 00:04:05;;;;;;;1.88;1.23;;;18.60;99.90;;;;;;5060223;28;20236;-78
2023/08/10 00:06:36;;;;;;;2.45;1.10;;;18.70;99.90;;;;;;5071764;28;20309;-79
2023/08/10 00:09:07;;;;;;;4.13;1.20;;;18.70;99.90;;;;;;5066910;28;20213;-77
2023/08/10 00:11:40;;;;;;;2.95;1.30;;;18.90;99.90;;;;;;5054378;28;20190;-77
2023/08/10 00:14:11;;;;;;;3.50;1.35;;;19.00;99.90;;;;;;5054178;28;20185;-78
2023/08/10 00:16:41;;;;;;;4.35;1.23;;;19.10;99.90;;;;;;5055208;28;20194;-80
2023/08/10 00:19:12;;;;;;;1.83;1.05;;;19.20;99.90;;;;;;5053934;28;20236;-81
2023/08/10 00:21:43;;;;;;;2.65;1.85;;;19.20;99.90;;;;;;5054218;28;20538;-80
2023/08/10 00:24:14;;;;;;;2.35;1.00;;;19.30;99.90;;;;;;5072394;28;20207;-80
2023/08/10 00:26:46;;;;;;;2.08;1.10;;;19.40;99.90;;;;;;5061786;28;20230;-78
2023/08/10 00:29:17;;;;;;;3.15;1.10;;;19.40;99.90;;;;;;5054351;28;20201;-79
2023/08/10 00:31:48;;;;;;;2.40;1.35;;;19.50;99.90;;;;;;5053923;28;20225;-76
2023/08/10 00:34:19;;;;;;;31.38;20.80;;;19.60;99.90;;;;;;5053171;28;20860;-76
2023/08/10 00:36:49;;;;;;;2.15;1.25;;;19.60;99.90;;;;;;5057046;28;20235;-81
2023/08/10 00:39:20;;;;;;;2.75;1.38;;;19.80;99.90;;;;;;5058417;28;20362;-74
2023/08/10 00:41:53;;;;;;;2.13;1.55;;;19.90;99.90;;;;;;5053723;28;20190;-75
2023/08/10 00:44:24;;;;;;;31.10;19.27;;;20.00;99.90;;;;;;5053950;28;20244;-77
2023/08/10 00:46:55;;;;;;;3.42;1.42;;;20.10;99.90;;;;;;5059313;28;20273;-75
2023/08/10 00:49:26;;;;;;;4.43;1.60;;;20.10;99.90;;;;;;5056364;28;20203;-75
2023/08/10 00:51:56;;;;;;;2.30;1.25;;;20.20;99.90;;;;;;5083880;28;20193;-75
2023/08/10 00:54:27;;;;;;;1.48;1.20;;;20.30;99.90;;;;;;5068495;28;20205;-75
2023/08/10 00:57:00;;;;;;;2.30;1.33;;;20.40;99.90;;;;;;5061151;28;20193;-74
2023/08/10 00:59:32;;;;;;;4.13;1.55;;;20.50;99.90;;;;;;5069519;28;20209;-72
2023/08/10 01:02:03;;;;;;;1.48;1.10;;;20.60;99.90;;;;;;5060582;28;20273;-73
2023/08/10 01:04:34;;;;;;;1.10;1.00;;;20.70;99.90;;;;;;5054497;28;20302;-73
2023/08/10 01:07:10;;;;;;;4.30;1.30;;;20.70;99.90;;;;;;5054506;28;20197;-73
2023/08/10 01:09:48;;;;;;;3.42;1.40;;;20.80;99.90;;;;;;5070847;28;20201;-75
2023/08/10 01:12:28;;;;;;;1.58;1.20;;;20.70;99.90;;;;;;5055415;28;20189;-72
2023/08/10 01:15:08;;;;;;;1.88;1.10;;;20.80;99.90;;;;;;5052225;28;20189;-75
2023/08/10 01:17:45;;;;;;;4.50;1.58;;;20.80;99.90;;;;;;5056609;28;20190;-74
2023/08/10 01:20:19;;;;;;;2.20;1.35;;;20.80;99.90;;;;;;5072133;28;20203;-74
2023/08/10 01:22:56;;;;;;;4.40;1.70;;;21.00;99.90;;;;;;5070854;28;20200;-73
2023/08/10 01:25:29;;;;;;;1.30;1.10;;;21.10;99.90;;;;;;5052932;28;20250;-75
2023/08/10 01:28:00;;;;;;;2.80;1.20;;;21.20;99.90;;;;;;5058575;28;20210;-74
2023/08/10 01:30:31;;;;;;;3.45;1.38;;;21.30;99.90;;;;;;5054739;28;20229;-73
2023/08/10 01:33:02;;;;;;;4.28;1.20;;;21.40;99.90;;;;;;5067017;28;20221;-73
2023/08/10 01:35:35;;;;;;;2.78;1.05;;;21.50;99.90;;;;;;5061517;28;20225;-74
2023/08/10 01:38:06;;;;;;;2.25;1.02;;;21.60;99.90;;;;;;5054043;28;20194;-74
2023/08/10 01:40:39;;;;;;;1.70;1.13;;;21.70;99.90;;;;;;5066757;28;20205;-75
2023/08/10 01:43:10;;;;;;;3.08;1.10;;;21.70;99.90;;;;;;5061825;28;20197;-74
2023/08/10 01:45:42;;;;;;;2.95;1.20;;;21.80;99.90;;;;;;5051426;28;20198;-74
2023/08/10 01:48:20;;;;;;;1.88;1.20;;;21.90;99.90;;;;;;5049816;28;20205;-75
2023/08/10 01:50:55;;;;;;;2.47;1.27;;;22.00;99.90;;;;;;5063169;28;20197;-74
2023/08/10 01:53:29;;;;;;;2.70;1.50;;;22.10;99.90;;;;;;5061939;28;20246;-72
2023/08/10 01:56:02;;;;;;;2.10;1.10;;;22.20;99.90;;;;;;5058477;28;20661;-74
2023/08/10 01:58:33;;;;;;;2.63;1.13;;;22.30;99.90;;;;;;5052371;28;20219;-76
2023/08/10 02:01:04;;;;;;;1.33;1.10;;;22.40;99.90;;;;;;5052082;28;20193;-77
2023/08/10 02:03:35;;;;;;;2.00;1.20;;;22.40;99.90;;;;;;5052976;28;20239;-80
2023/08/10 02:06:06;;;;;;;6.00;1.63;;;22.30;99.90;;;;;;5051335;28;20255;-81
2023/08/10 02:08:36;;;;;;;3.47;2.47;;;22.20;99.90;;;;;;5052817;28;20190;-84
2023/08/10 02:11:09;;;;;;;1.73;0.90;;;22.40;99.90;;;;;;5057800;28;20613;-83
2023/08/10 02:13:40;;;;;;;1.83;1.02;;;22.50;99.90;;;;;;5052101;28;20201;-80
2023/08/10 02:16:11;;;;;;;1.98;1.05;;;22.50;99.90;;;;;;5061829;28;20202;-83
2023/08/10 02:18:42;;;;;;;4.55;1.00;;;22.50;99.90;;;;;;5055860;28;20209;-79
2023/08/10 02:21:12;;;;;;;2.72;1.15;;;22.40;99.90;;;;;;5071347;28;20197;-81
2023/08/10 02:23:43;;;;;;;7.13;1.05;;;22.30;99.90;;;;;;5053790;28;20198;-76
2023/08/10 02:26:16;;;;;;;4.15;0.90;;;22.30;99.90;;;;;;5058350;28;20208;-79
2023/08/10 02:28:46;;;;;;;4.70;1.00;;;22.20;99.90;;;;;;5051886;28;20204;-76
2023/08/10 02:31:17;;;;;;;2.50;0.70;;;22.10;99.90;;;;;;5062125;28;20229;-74
2023/08/10 02:33:48;;;;;;;5.50;0.77;;;22.20;99.90;;;;;;5076040;28;20215;-77
2023/08/10 02:36:19;;;;;;;1.75;0.80;;;22.30;99.90;;;;;;5076044;28;20181;-76
2023/08/10 02:38:50;;;;;;;2.30;0.70;;;22.60;99.90;;;;;;5064820;28;20221;-78
2023/08/10 02:41:23;;;;;;;0.70;0.57;;;22.80;99.90;;;;;;5057208;28;20204;-76
2023/08/10 02:43:54;;;;;;;0.82;0.73;;;23.00;99.90;;;;;;5065328;28;20193;-74
2023/08/10 02:46:25;;;;;;;0.85;0.77;;;23.10;99.90;;;;;;5063455;28;20194;-76
2023/08/10 02:48:57;;;;;;;2.17;0.80;;;23.30;99.90;;;;;;5064467;28;20233;-76
2023/08/10 02:51:27;;;;;;;1.80;0.85;;;23.40;99.90;;;;;;5069826;28;20203;-75
2023/08/10 02:53:58;;;;;;;1.83;0.90;;;23.40;99.90;;;;;;5055540;28;20205;-75
2023/08/10 02:56:31;;;;;;;3.38;0.90;;;23.50;99.90;;;;;;5052666;28;20663;-77
2023/08/10 02:59:01;;;;;;;1.23;0.70;;;23.30;99.90;;;;;;5067368;28;20213;-75
2023/08/10 03:01:32;;;;;;;1.65;0.80;;;22.90;99.90;;;;;;5062266;28;20200;-74
2023/08/10 03:04:03;;;;;;;2.65;0.90;;;22.70;99.90;;;;;;5065697;28;20257;-76
2023/08/10 03:06:34;;;;;;;3.65;0.80;;;22.50;99.90;;;;;;5072797;28;20200;-79
2023/08/10 03:09:06;;;;;;;3.17;0.70;;;22.40;99.90;;;;;;5066719;28;20723;-80
2023/08/10 03:11:39;;;;;;;1.08;0.85;;;22.60;99.90;;;;;;5069924;28;20204;-76
2023/08/10 03:14:10;;;;;;;2.92;0.90;;;22.90;99.90;;;;;;5055243;28;20194;-75
2023/08/10 03:16:40;;;;;;;1.30;0.70;;;23.00;99.90;;;;;;5073056;28;20215;-78
2023/08/10 03:19:11;;;;;;;0.70;0.65;;;23.10;99.90;;;;;;5074619;28;20213;-75
2023/08/10 03:21:42;;;;;;;2.25;0.70;;;23.20;99.90;;;;;;5069855;28;20208;-75
2023/08/10 03:24:13;;;;;;;1.05;0.80;;;23.30;99.90;;;;;;5073982;28;20565;-76
2023/08/10 03:26:45;;;;;;;2.38;0.68;;;23.40;99.90;;;;;;5058369;28;20202;-79
2023/08/10 03:29:16;;;;;;;1.80;0.80;;;23.40;99.90;;;;;;5055314;28;20280;-75
2023/08/10 03:31:47;;;;;;;1.83;0.82;;;23.50;99.90;;;;;;5056983;28;20300;-75
2023/08/10 03:34:18;;;;;;;3.35;0.77;;;23.70;99.90;;;;;;5075132;28;20193;-75
2023/08/10 03:36:48;;;;;;;1.65;0.80;;;23.70;99.90;;;;;;5067147;28;20292;-75
2023/08/10 03:39:19;;;;;;;2.45;1.00;;;23.60;99.90;;;;;;5053129;28;20549;-76
2023/08/10 03:41:52;;;;;;;2.25;1.17;;;23.70;99.90;;;;;;5053423;28;20717;-75
2023/08/10 03:44:22;;;;;;;2.72;1.00;;;23.70;99.90;;;;;;5058851;28;20197;-75
2023/08/10 03:46:56;;;;;;;3.92;1.00;;;23.70;99.90;;;;;;5074799;28;20212;-74
2023/08/10 03:49:27;;;;;;;5.13;0.70;;;23.70;99.90;;;;;;5075226;28;20629;-75
2023/08/10 03:51:58;;;;;;;1.08;0.75;;;23.60;99.90;;;;;;5071885;28;20196;-76
2023/08/10 03:54:30;;;;;;;1.45;0.93;;;23.70;99.90;;;;;;5054618;28;20201;-77
2023/08/10 03:57:03;;;;;;;2.42;1.00;;;23.60;99.90;;;;;;5054743;28;20192;-76
2023/08/10 03:59:34;;;;;;;2.42;1.20;;;23.60;99.90;;;;;;5055087;28;20214;-76
2023/08/10 04:02:04;;;;;;;4.75;1.05;;;23.60;99.90;;;;;;5054805;28;20186;-79
2023/08/10 04:04:35;;;;;;;1.33;0.70;;;23.50;99.90;;;;;;5055707;28;20233;-75
2023/08/10 04:07:07;;;;;;;2.08;0.90;;;23.50;99.90;;;;;;5054629;28;20201;-76
2023/08/10 04:09:39;;;;;;;3.03;1.00;;;23.40;99.90;;;;;;5054393;28;20703;-76
2023/08/10 04:12:12;;;;;;;2.78;0.80;;;23.40;99.90;;;;;;5054565;28;20193;-77
2023/08/10 04:14:43;;;;;;;1.75;0.80;;;23.40;99.90;;;;;;5054329;28;20205;-76
2023/08/10 04:17:13;;;;;;;1.27;0.80;;;23.50;99.90;;;;;;5054308;28;20224;-75
2023/08/10 04:19:44;;;;;;;2.80;0.80;;;23.50;99.90;;;;;;5054111;28;20216;-76
2023/08/10 04:22:15;;;;;;;1.08;0.70;;;23.50;99.90;;;;;;5054287;28;20244;-76
2023/08/10 04:24:46;;;;;;;4.20;1.17;;;23.60;99.90;;;;;;5054269;28;20281;-73
2023/08/10 04:27:18;;;;;;;1.88;0.98;;;23.50;99.90;;;;;;5054080;28;20192;-75
2023/08/10 04:29:50;;;;;;;2.92;1.23;;;23.40;99.90;;;;;;5054045;28;20229;-76
2023/08/10 04:32:21;;;;;;;2.60;0.70;;;23.50;99.90;;;;;;5054238;28;20530;-77
2023/08/10 04:34:52;;;;;;;1.58;0.70;;;23.40;99.90;;;;;;5053912;28;20185;-75
2023/08/10 04:37:22;;;;;;;2.72;0.73;;;23.40;99.90;;;;;;5053808;28;20634;-75
2023/08/10 04:39:53;;;;;;;4.05;0.70;;;23.30;99.90;;;;;;5053864;28;20276;-78
2023/08/10 04:42:26;;;;;;;4.25;0.88;;;23.30;99.90;;;;;;5054002;28;20189;-75
2023/08/10 04:44:57;;;;;;;2.42;0.98;;;23.20;99.90;;;;;;5053896;28;20186;-79
2023/08/10 04:47:27;;;;;;;3.13;0.73;;;23.10;99.90;;;;;;5053758;28;20200;-77
2023/08/10 04:49:58;;;;;;;3.42;0.90;;;23.10;99.90;;;;;;5054914;28;20201;-75
2023/08/10 04:52:29;;;;;;;1.08;0.70;;;23.20;99.90;;;;;;5057693;28;20225;-81
2023/08/10 04:55:00;;;;;;;1.45;0.75;;;23.10;99.90;;;;;;5061149;28;20189;-79
2023/08/10 04:57:35;;;;;;;0.60;0.60;;;23.20;99.90;;;;;;5066979;28;20196;-77
2023/08/10 05:00:12;;;;;;;1.70;0.65;;;23.10;99.90;;;;;;5063271;28;20281;-75
2023/08/10 05:02:43;;;;;;;1.58;0.80;;;23.00;99.90;;;;;;5053662;28;20263;-79
2023/08/10 05:05:15;;;;;;;1.25;0.63;;;23.00;99.90;;;;;;5067840;28;20202;-79
2023/08/10 05:07:46;;;;;;;4.30;0.98;;;23.00;99.90;;;;;;5071011;28;20203;-78
2023/08/10 05:10:17;;;;;;;1.02;0.60;;;22.90;99.90;;;;;;5066901;28;20657;-75
2023/08/10 05:12:50;;;;;;;1.10;1.00;;;22.90;99.90;;;;;;5058853;28;20210;-79
2023/08/10 05:15:21;;;;;;;1.48;0.60;;;22.90;99.90;;;;;;5072011;28;20715;-79
2023/08/10 05:17:51;;;;;;;3.42;0.80;;;22.90;99.90;;;;;;5073181;28;20185;-72
2023/08/10 05:20:22;;;;;;;3.80;0.80;;;22.80;99.90;;;;;;5073184;28;20680;-74
2023/08/10 05:22:53;;;;;;;2.95;0.88;;;22.80;99.90;;;;;;5073057;28;20219;-75
2023/08/10 05:25:24;;;;;;;3.22;0.80;;;22.80;99.90;;;;;;5073172;28;20188;-75
2023/08/10 05:27:57;;;;;;;4.53;0.90;;;22.80;99.90;;;;;;5071349;28;20193;-75
2023/08/10 05:30:28;;;;;;;0.75;0.63;;;22.80;99.90;;;;;;5073144;28;20684;-74
2023/08/10 05:32:59;;;;;;;2.03;0.90;;;22.80;99.90;;;;;;5073060;28;20224;-75
2023/08/10 05:35:30;;;;;;;2.78;0.80;;;22.80;99.90;;;;;;5064743;28;20281;-77
2023/08/10 05:38:00;;;;;;;1.20;0.60;;;22.80;99.90;;;;;;5068930;28;20195;-76
2023/08/10 05:40:31;;;;;;;1.88;0.70;;;22.70;99.90;;;;;;5069129;28;20797;-76
2023/08/10 05:43:04;;;;;;;0.90;0.60;;;22.70;99.90;;;;;;5053096;28;20190;-76
2023/08/10 05:45:35;;;;;;;1.77;0.70;;;22.60;99.90;;;;;;5056808;28;20556;-77
2023/08/10 05:48:13;;;;;;;1.33;0.73;;;22.60;99.90;;;;;;5069842;28;20275;-76
2023/08/10 05:50:44;;;;;;;1.90;0.70;;;22.60;99.90;;;;;;5072588;28;20670;-75
2023/08/10 05:53:15;;;;;;;3.05;0.70;;;22.50;99.90;;;;;;5072155;28;20655;-78
2023/08/10 05:55:46;;;;;;;1.60;0.50;;;22.40;99.90;;;;;;5064291;28;20186;-76
2023/08/10 05:58:18;;;;;;;1.77;0.70;;;22.40;99.90;;;;;;5052821;28;20193;-74
2023/08/10 06:00:50;;;;;;;1.50;0.60;;;22.30;99.90;;;;;;5052822;28;20221;-75
2023/08/10 06:03:24;;;;;;;1.67;0.60;;;22.20;99.90;;;;;;5057470;28;20291;-77
2023/08/10 06:05:54;;;;;;;0.98;0.60;;;22.20;99.90;;;;;;5067870;28;20201;-77
2023/08/10 06:08:25;;;;;;;1.25;0.70;;;22.10;99.90;;;;;;5057065;28;20657;-75
2023/08/10 06:10:56;;;;;;;2.50;0.65;;;22.00;99.90;;;;;;5073715;28;20562;-78
2023/08/10 06:13:30;;;;;;;1.63;0.70;;;21.90;99.90;;;;;;5088103;28;20652;-77
2023/08/10 06:16:01;;;;;;;0.68;0.57;;;21.90;99.90;;;;;;5076953;28;20276;-76
2023/08/10 06:18:32;;;;;;;3.95;0.50;;;21.80;99.90;;;;;;5076604;28;20193;-77
2023/08/10 06:21:03;;;;;;;3.03;0.63;;;21.80;99.90;;;;;;5092706;28;20269;-75
2023/08/10 06:23:34;;;;;;;1.05;0.50;;;21.70;99.90;;;;;;5076967;28;20637;-75
2023/08/10 06:26:05;;;;;;;1.00;0.43;;;21.60;99.90;;;;;;5075508;28;20216;-75
2023/08/10 06:28:38;;;;;;;2.38;0.60;;;21.60;99.90;;;;;;5076543;28;20193;-74
2023/08/10 06:31:11;;;;;;;2.10;0.40;;;21.60;99.90;;;;;;5076557;28;20637;-74
2023/08/10 06:33:42;;;;;;;2.15;0.40;;;21.50;99.90;;;;;;5074281;28;20285;-74
2023/08/10 06:36:13;;;;;;;1.27;0.52;;;21.40;99.90;;;;;;5056203;28;20195;-75
2023/08/10 06:38:44;;;;;;;1.10;0.55;;;21.30;99.90;;;;;;5056329;28;20190;-75
2023/08/10 06:41:14;;;;;;;0.95;0.30;;;21.20;99.90;;;;;;5062252;28;20216;-77
2023/08/10 06:43:47;;;;;;;1.40;0.50;;;21.10;99.90;;;;;;5074661;28;20189;-75
2023/08/10 06:46:18;;;;;;;0.63;0.50;;;21.00;99.90;;;;;;5074603;28;20640;-78
2023/08/10 06:48:49;;;;;;;0.70;0.43;;;20.90;99.90;;;;;;5075549;28;20189;-76
2023/08/10 06:51:20;;;;;;;1.10;0.40;;;20.90;99.90;;;;;;5072599;28;20208;-81
2023/08/10 06:53:50;;;;;;;0.82;0.50;;;20.80;99.90;;;;;;5059773;28;20201;-77
2023/08/10 06:56:21;;;;;;;3.25;0.40;;;20.80;99.90;;;;;;5060085;28;20196;-79
2023/08/10 06:58:54;;;;;;;1.15;0.40;;;20.60;99.90;;;;;;5057116;28;20200;-77
2023/08/10 07:01:25;;;;;;;1.10;0.55;;;20.50;99.90;;;;;;5061486;28;20225;-80
2023/08/10 07:03:56;;;;;;;2.72;0.52;;;20.50;99.90;;;;;;5061501;28;20227;-81
2023/08/10 07:06:27;;;;;;;0.63;0.57;;;20.40;99.90;;;;;;5075593;28;20200;-78
2023/08/10 07:08:57;;;;;;;1.38;0.52;;;20.30;99.90;;;;;;5069448;28;20189;-78
2023/08/10 07:11:28;;;;;;;0.73;0.32;;;20.10;99.90;;;;;;5067487;28;20329;-81
2023/08/10 07:14:01;;;;;;;1.05;0.40;;;20.00;99.90;;;;;;5061948;28;20743;-78
2023/08/10 07:16:32;;;;;;;1.58;0.60;;;19.90;99.90;;;;;;5062263;28;20684;-80
2023/08/10 07:19:03;;;;;;;1.25;0.50;;;19.80;99.90;;;;;;5056278;28;20190;-80
2023/08/10 07:21:33;;;;;;;3.70;0.68;;;19.70;99.90;;;;;;5058353;28;20302;-81
2023/08/10 07:24:05;;;;;;;3.25;0.63;;;19.60;99.90;;;;;;5061053;28;20200;-80
2023/08/10 07:26:40;;;;;;;1.98;0.70;;;19.50;99.90;;;;;;5058944;28;20237;-81
2023/08/10 07:29:13;;;;;;;1.35;0.70;;;19.40;99.90;;;;;;5061010;28;20745;-81
2023/08/10 07:31:44;;;;;;;1.77;0.70;;;19.30;99.90;;;;;;5063937;28;20847;-80
2023/08/10 07:34:15;;;;;;;3.10;0.60;;;19.20;99.90;;;;;;5056365;28;20205;-80
2023/08/10 07:36:46;;;;;;;1.05;0.57;;;19.10;99.90;;;;;;5064432;28;20193;-80
2023/08/10 07:39:17;;;;;;;1.63;0.68;;;19.10;99.90;;;;;;5067699;28;20197;-78
2023/08/10 07:41:48;;;;;;;0.70;0.60;;;19.00;99.90;;;;;;5060047;28;20225;-79
2023/08/10 07:44:21;;;;;;;1.17;0.73;;;19.00;99.90;;;;;;5058597;28;20190;-78
2023/08/10 07:46:52;;;;;;;1.05;0.55;;;18.80;99.90;;;;;;5055199;28;20211;-75
2023/08/10 07:49:23;;;;;;;0.60;0.50;;;18.80;99.90;;;;;;5057131;28;20590;-76
2023/08/10 07:51:53;;;;;;;0.65;0.40;;;18.70;99.90;;;;;;5054643;28;20664;-79
2023/08/10 07:54:24;;;;;;;1.60;0.50;;;18.60;99.90;;;;;;5055211;28;20190;-80
2023/08/10 07:56:55;;;;;;;0.50;0.50;;;18.60;99.90;;;;;;5057802;28;20193;-81
2023/08/10 07:59:28;;;;;;;0.70;0.52;;;18.50;99.90;;;;;;5051905;28;20198;-79
2023/08/10 08:01:59;;;;;;;0.85;0.60;;;18.40;99.90;;;;;;5058714;28;20240;-80
2023/08/10 08:04:29;;;;;;;1.10;0.60;;;18.30;99.90;;;;;;5056364;28;20598;-77
2023/08/10 08:07:00;;;;;;;1.42;0.70;;;18.30;99.90;;;;;;5053385;28;20200;-80
2023/08/10 08:09:31;;;;;;;0.65;0.60;;;18.30;99.90;;;;;;5053622;28;20208;-76
2023/08/10 08:12:02;;;;;;;1.83;0.70;;;18.20;99.90;;;;;;5053857;28;20556;-76
2023/08/10 08:14:35;;;;;;;1.20;0.70;;;18.20;99.90;;;;;;5056912;28;20256;-78
2023/08/10 08:17:06;;;;;;;2.25;0.70;;;18.10;99.90;;;;;;5066723;28;20202;-77
2023/08/10 08:19:37;;;;;;;1.80;0.98;;;18.10;99.90;;;;;;5054420;28;20190;-74
2023/08/10 08:22:07;;;;;;;0.80;0.63;;;18.00;99.90;;;;;;5054866;28;20253;-75
2023/08/10 08:24:38;;;;;;;1.48;0.70;;;18.00;99.90;;;;;;5069569;28;20223;-75
2023/08/10 08:27:09;;;;;;;5.82;0.80;;;18.00;99.90;;;;;;5051699;28;20195;-77
2023/08/10 08:29:42;;;;;;;1.45;0.90;;;17.90;99.90;;;;;;5051960;28;20229;-79
2023/08/10 08:32:12;;;;;;;0.90;0.70;;;17.90;99.90;;;;;;5054595;28;20570;-76
2023/08/10 08:34:43;;;;;;;2.10;0.70;;;17.90;99.90;;;;;;5061294;28;20200;-77
2023/08/10 08:37:16;;;;;;;1.10;0.60;;;17.80;99.90;;;;;;5052196;28;20717;-78
2023/08/10 08:39:46;;;;;;;1.50;0.60;;;17.80;99.90;;;;;;5052600;28;20201;-77
2023/08/10 08:42:18;;;;;;;1.00;0.70;;;17.70;99.90;;;;;;5053957;28;20224;-78
2023/08/10 08:44:51;;;;;;;2.33;0.70;;;17.70;99.90;;;;;;5059894;28;20219;-78
2023/08/10 08:47:21;;;;;;;0.98;0.60;;;17.60;99.90;;;;;;5061714;28;20206;-77
2023/08/10 08:49:53;;;;;;;1.95;0.80;;;17.60;99.90;;;;;;5067082;28;20598;-78
2023/08/10 08:52:24;;;;;;;3.15;0.85;;;17.50;99.90;;;;;;5072600;28;20288;-78
2023/08/10 08:55:00;;;;;;;1.02;0.63;;;17.50;99.90;;;;;;5057461;28;20542;-80
2023/08/10 08:57:31;;;;;;;1.98;0.88;;;17.40;99.90;;;;;;5060706;28;20189;-76
2023/08/10 09:00:03;;;;;;;4.32;0.82;;;17.30;99.90;;;;;;5050191;28;21918;-78
2023/08/10 09:02:34;;;;;;;2.05;0.90;;;17.30;99.90;;;;;;5053620;28;20240;-78
2023/08/10 09:05:06;;;;;;;2.00;0.88;;;17.30;99.90;;;;;;5059229;28;20207;-77
2023/08/10 09:07:37;;;;;;;2.60;1.30;;;17.20;99.90;;;;;;5072170;28;20200;-77
2023/08/10 09:10:08;;;;;;;2.00;1.02;;;17.20;99.90;;;;;;5060997;28;20557;-81
2023/08/10 09:12:40;;;;;;;4.30;0.90;;;17.10;99.90;;;;;;5060358;28;20200;-81
2023/08/10 09:15:14;;;;;;;3.25;0.95;;;17.10;99.90;;;;;;5061958;28;20197;-77
2023/08/10 09:17:48;;;;;;;2.85;0.90;;;17.00;99.90;;;;;;5061426;28;20192;-79
2023/08/10 09:20:22;;;;;;;2.15;0.70;;;17.00;99.90;;;;;;5056627;28;20685;-79
2023/08/10 09:22:54;;;;;;;1.40;0.80;;;17.00;99.90;;;;;;5060264;28;20200;-79
2023/08/10 09:25:25;;;;;;;3.67;0.75;;;16.90;99.90;;;;;;5053500;28;20212;-79
2023/08/10 09:27:56;;;;;;;0.95;0.57;;;16.90;99.90;;;;;;5052040;28;20193;-78
2023/08/10 09:30:35;;;;;;;2.80;0.70;;;16.80;99.90;;;;;;5062698;28;20202;-79
2023/08/10 09:33:06;;;;;;;2.95;0.60;;;16.80;99.90;;;;;;5063134;28;20283;-79
2023/08/10 09:35:38;;;;;;;3.22;0.80;;;16.70;99.90;;;;;;5057664;28;20205;-80
2023/08/10 09:38:08;;;;;;;2.40;0.63;;;16.70;99.90;;;;;;5061705;28;20192;-80
2023/08/10 09:40:39;;;;;;;3.20;0.65;;;16.60;99.90;;;;;;5055756;28;20817;-79
2023/08/10 09:43:13;;;;;;;1.27;0.82;;;16.60;99.90;;;;;;5064169;28;20193;-81
2023/08/10 09:45:46;;;;;;;3.95;0.98;;;16.60;99.90;;;;;;5064944;28;20201;-80
2023/08/10 09:48:17;;;;;;;2.38;0.70;;;16.50;99.90;;;;;;5053095;28;20212;-79
2023/08/10 09:50:49;;;;;;;2.40;0.90;;;16.50;99.90;;;;;;5064736;28;20552;-78
2023/08/10 09:53:20;;;;;;;1.67;0.90;;;16.50;99.90;;;;;;5050234;28;20243;-80
2023/08/10 09:55:51;;;;;;;1.85;0.90;;;16.50;99.90;;;;;;5056970;28;20200;-80
2023/08/10 09:58:22;;;;;;;2.72;0.70;;;16.40;99.90;;;;;;5059090;28;20197;-79
2023/08/10 10:00:55;;;;;;;4.05;0.90;;;16.40;99.90;;;;;;5058338;28;20335;-80
2023/08/10 10:03:29;;;;;;;2.58;0.90;;;16.30;99.90;;;;;;5055656;28;20728;-80
2023/08/10 10:06:00;;;;;;;3.00;0.63;;;16.30;99.90;;;;;;5054364;28;20285;-83
2023/08/10 10:08:31;;;;;;;2.20;0.77;;;16.30;99.90;;;;;;5056701;28;20215;-78
2023/08/10 10:11:04;;;;;;;2.05;0.60;;;16.30;99.90;;;;;;5066877;28;20236;-79
2023/08/10 10:13:35;;;;;;;1.83;0.70;;;16.30;99.90;;;;;;5065795;28;20208;-78
2023/08/10 10:16:09;;;;;;;1.02;0.60;;;16.20;99.90;;;;;;5057561;28;20201;-79
2023/08/10 10:18:40;;;;;;;0.57;0.57;;;16.20;99.90;;;;;;5065331;28;20668;-79
2023/08/10 10:21:12;;;;;;;1.10;0.80;;;16.10;99.90;;;;;;5055009;28;20216;-79
2023/08/10 10:23:44;;;;;;;1.75;0.68;;;16.10;99.90;;;;;;5066678;28;20205;-79
2023/08/10 10:26:15;;;;;;;2.67;0.80;;;16.00;99.90;;;;;;5056940;28;20205;-80
2023/08/10 10:28:46;;;;;;;1.80;0.80;;;16.00;99.90;;;;;;5059004;28;20225;-80
2023/08/10 10:31:19;;;;;;;2.35;1.10;;;16.00;99.90;;;;;;5061223;28;20201;-80
2023/08/10 10:33:58;;;;;;;1.65;0.77;;;15.90;99.90;;;;;;5058933;28;20201;-79
2023/08/10 10:36:29;;;;;;;2.08;0.80;;;15.90;99.90;;;;;;5059755;28;20203;-79
2023/08/10 10:39:07;;;;;;;2.78;0.80;;;15.80;99.90;;;;;;5055518;28;20200;-81
2023/08/10 10:41:38;;;;;;;2.85;1.25;;;15.80;99.90;;;;;;5058843;28;20300;-80
2023/08/10 10:44:11;;;;;;;3.40;1.20;;;15.70;99.90;;;;;;5060980;28;20193;-78
2023/08/10 10:46:44;;;;;;;2.55;1.00;;;15.70;99.90;;;;;;5067609;28;21943;-79
2023/08/10 10:49:23;;;;;;;3.15;0.88;;;15.70;99.90;;;;;;5059925;28;20205;-81
2023/08/10 10:51:58;;;;;;;2.60;0.90;;;15.60;99.90;;;;;;5068521;28;20208;-74
2023/08/10 10:54:29;;;;;;;2.47;1.20;;;15.60;99.90;;;;;;5075351;28;20247;-73
2023/08/10 10:56:59;;;;;;;4.63;0.88;;;15.50;99.90;;;;;;5068996;28;20231;-79
2023/08/10 10:59:30;;;;;;;2.13;0.88;;;15.50;99.90;;;;;;5069413;28;20204;-79
2023/08/10 11:02:03;;;;;;;3.47;1.00;;;15.40;99.90;;;;;;5071065;28;20217;-73
2023/08/10 11:04:34;;;;;;;2.47;0.82;;;15.40;99.90;;;;;;5063894;28;20201;-75
2023/08/10 11:07:05;;;;;;;1.92;0.90;;;15.30;99.90;;;;;;5064267;28;20664;-72
2023/08/10 11:09:36;;;;;;;4.97;1.00;;;15.30;99.90;;;;;;5068417;28;20204;-73
2023/08/10 11:12:07;;;;;;;3.60;1.10;;;15.20;99.90;;;;;;5069298;28;20207;-72
2023/08/10 11:14:38;;;;;;;2.35;0.60;;;15.20;99.90;;;;;;5066073;28;20560;-76
2023/08/10 11:17:11;;;;;;;1.95;0.70;;;15.10;99.90;;;;;;5073878;28;20197;-74
2023/08/10 11:19:42;;;;;;;3.90;1.08;;;15.20;99.90;;;;;;5062351;28;20211;-72
2023/08/10 11:22:12;;;;;;;1.52;0.60;;;15.20;99.90;;;;;;5064615;28;20213;-72
2023/08/10 11:24:45;;;;;;;2.03;0.80;;;15.20;99.90;;;;;;5064840;28;20258;-72
2023/08/10 11:27:16;;;;;;;2.97;0.90;;;15.20;99.90;;;;;;5058732;28;20194;-72
2023/08/10 11:29:46;;;;;;;3.05;0.77;;;15.20;99.90;;;;;;5063811;28;20679;-76
2023/08/10 11:32:20;;;;;;;1.60;0.82;;;15.20;99.90;;;;;;5058472;28;20204;-72
2023/08/10 11:34:53;;;;;;;2.47;0.80;;;15.20;99.90;;;;;;5061332;28;20281;-72
2023/08/10 11:37:32;;;;;;;1.60;0.63;;;15.20;99.90;;;;;;5060894;28;20344;-73
2023/08/10 11:40:15;;;;;;;3.47;1.00;;;15.10;99.90;;;;;;5064941;28;20201;-75
2023/08/10 11:42:48;;;;;;;1.70;0.90;;;15.10;99.90;;;;;;5058885;28;20605;-78
2023/08/10 11:45:20;;;;;;;3.45;0.90;;;15.00;99.90;;;;;;5070392;28;20201;-74
2023/08/10 11:47:58;;;;;;;1.92;0.98;;;15.00;99.90;;;;;;5066268;28;20638;-76
2023/08/10 11:50:30;;;;;;;2.00;0.80;;;15.00;99.90;;;;;;5055046;28;20671;-80
2023/08/10 11:53:10;;;;;;;2.40;0.80;;;15.00;99.90;;;;;;5070758;28;20242;-79
2023/08/10 11:55:45;;;;;;;1.75;0.70;;;14.90;99.90;;;;;;5075792;28;20249;-76
2023/08/10 11:58:17;;;;;;;1.25;0.70;;;14.80;99.90;;;;;;5071890;28;20212;-80
2023/08/10 12:00:53;;;;;;;2.83;0.95;;;14.80;99.90;;;;;;5063447;28;20233;-77
2023/08/10 12:03:28;;;;;;;2.65;0.80;;;14.80;99.90;;;;;;5059099;28;20271;-79
2023/08/10 12:06:04;;;;;;;3.50;0.70;;;14.70;99.90;;;;;;5066003;28;20189;-79
2023/08/10 12:08:41;;;;;;;3.42;1.00;;;14.70;99.90;;;;;;5054734;28;20205;-77
2023/08/10 12:11:13;;;;;;;2.97;0.80;;;14.70;99.90;;;;;;5062470;28;20550;-77
2023/08/10 12:13:48;;;;;;;2.75;0.88;;;14.70;99.90;;;;;;5052502;28;20208;-80
2023/08/10 12:16:20;;;;;;;2.35;0.80;;;14.70;99.90;;;;;;5059944;28;20200;-79
2023/08/10 12:18:52;;;;;;;2.92;0.70;;;14.70;99.90;;;;;;5056835;28;20200;-78
2023/08/10 12:21:23;;;;;;;1.95;0.70;;;14.60;99.90;;;;;;5054424;28;20200;-80
2023/08/10 12:23:55;;;;;;;1.80;0.70;;;14.60;99.90;;;;;;5065924;28;20687;-80
2023/08/10 12:26:26;;;;;;;2.47;0.80;;;14.60;99.90;;;;;;5056671;28;20208;-79
2023/08/10 12:28:56;;;;;;;3.05;0.80;;;14.60;99.90;;;;;;5069683;28;20675;-79
2023/08/10 12:31:27;;;;;;;2.63;0.80;;;14.60;99.90;;;;;;5057612;28;20198;-81
2023/08/10 12:34:00;;;;;;;3.40;0.82;;;14.60;99.90;;;;;;5056501;28;20204;-77
2023/08/10 12:36:31;;;;;;;2.72;1.00;;;14.60;99.90;;;;;;5058280;28;20224;-76
2023/08/10 12:39:01;;;;;;;3.08;0.82;;;14.50;99.90;;;;;;5055511;28;20283;-78
2023/08/10 12:41:32;;;;;;;2.42;1.00;;;14.50;99.90;;;;;;5059010;28;20197;-79
2023/08/10 12:44:03;;;;;;;4.60;1.05;;;14.40;99.90;;;;;;5068319;28;20201;-78
2023/08/10 12:46:34;;;;;;;2.78;0.98;;;14.40;99.90;;;;;;5056517;28;20245;-79
2023/08/10 12:49:06;;;;;;;3.83;1.08;;;14.30;99.90;;;;;;5066133;28;20199;-77
2023/08/10 12:51:37;;;;;;;1.75;0.85;;;14.30;99.90;;;;;;5065057;28;20203;-72
2023/08/10 12:54:08;;;;;;;3.50;1.17;;;14.30;99.90;;;;;;5073628;28;20197;-78
2023/08/10 12:56:39;;;;;;;2.05;0.73;;;14.20;99.90;;;;;;5073636;28;20193;-72
2023/08/10 12:59:10;;;;;;;3.83;0.90;;;14.20;99.90;;;;;;5073589;28;20193;-75
2023/08/10 13:01:41;;;;;;;4.25;0.80;;;14.20;99.90;;;;;;5073489;28;20195;-73
2023/08/10 13:04:13;;;;;;;4.63;0.95;;;14.20;99.90;;;;;;5073491;28;20229;-77
2023/08/10 13:06:44;;;;;;;3.72;1.20;;;14.10;99.90;;;;;;5064691;28;20556;-72
2023/08/10 13:09:15;;;;;;;2.03;0.73;;;14.10;99.90;;;;;;5059997;28;20201;-79